»·PEaware :: AAL747 KDFW-KSAT

AAL747 :: KDFW-KSAT

FLIGHT INFORMATION

Flight Status: Arrived
Operator:
American Airlines
More flights by this operator :: More flights under this callsign
Pilot: Adam Asmar (5112)
Aircraft: MCDONNELL-DOUGLAS MD-88
(MD88)
More flights by this aircraft type
Origin: KDFW Dallas-Ft Worth Intl
United States
Destination: KSAT San Antonio Intl
United States
More flights between these airports :: More routes between these airports
Route: JASPA5 WINDU RODIO2
File this flight plan on PilotEdge
Remarks:
Altitude:
(Current/Filed)
30,000ft
Speed:
(Current/Filed)
410kts
Departed: 05-Mar-16 08:19 AM
Arrived: 05-Mar-16 09:10 AM
Distance/Time
Traveled:
215nm/0:51
Distance/Time
To Go:
Arrived

Flight Plot

Page will automatically refresh every two minutes.


Map Options




Map Legend


Flown Route
Filed Route
Departure Airport
Arrival Airport
Navaid (VOR, NDB)
Fix

Horizontal Profiles

Position Reports

Time Latitude Longitude Heading Altitude Ground
Speed
05-Mar-16 08:06 32.910274 -97.031790 0 612ft 19kts
05-Mar-16 08:07 32.914536 -97.031768 359 612ft 10kts
05-Mar-16 08:08 32.915563 -97.031247 78 612ft 0kts
05-Mar-16 08:09 32.915563 -97.031244 78 612ft 0kts
05-Mar-16 08:10 32.915608 -97.030918 82 612ft 7kts
05-Mar-16 08:11 32.911579 -97.029916 179 612ft 27kts
05-Mar-16 08:12 32.876009 -97.030535 181 1427ft 166kts
05-Mar-16 08:13 32.814180 -97.030394 181 2448ft 269kts
05-Mar-16 08:14 32.740845 -97.030316 180 3949ft 257kts
05-Mar-16 08:15 32.680492 -97.015772 156 5167ft 186kts
05-Mar-16 08:16 32.617157 -96.984176 163 6695ft 278kts
05-Mar-16 08:17 32.539715 -96.996620 191 9790ft 292kts
05-Mar-16 08:18 32.450707 -97.018333 192 11699ft 348kts
05-Mar-16 08:19 32.354915 -97.041947 193 14410ft 364kts
05-Mar-16 08:20 32.253193 -97.059956 183 16862ft 382kts
05-Mar-16 08:21 32.144952 -97.063539 183 19017ft 399kts
05-Mar-16 08:22 32.032012 -97.067076 184 21062ft 413kts
05-Mar-16 08:23 31.916210 -97.070691 184 23007ft 424kts
05-Mar-16 08:24 31.797260 -97.074396 185 24891ft 435kts
05-Mar-16 08:25 31.674946 -97.078269 185 26639ft 446kts
05-Mar-16 08:26 31.550683 -97.082382 186 28548ft 448kts
05-Mar-16 08:27 31.429346 -97.086196 186 30204ft 436kts
05-Mar-16 08:28 31.312656 -97.104603 221 30250ft 413kts
05-Mar-16 08:29 31.231014 -97.194148 212 30244ft 421kts
05-Mar-16 08:30 31.124734 -97.250900 209 30230ft 424kts
05-Mar-16 08:31 31.017858 -97.304860 209 30230ft 424kts
05-Mar-16 08:32 30.909889 -97.359126 209 30230ft 424kts
05-Mar-16 08:33 30.802144 -97.413144 209 30227ft 424kts
05-Mar-16 08:34 30.713734 -97.457369 209 30222ft 425kts
05-Mar-16 08:35 30.606997 -97.510644 209 30233ft 426kts
05-Mar-16 08:36 30.504857 -97.561500 209 29534ft 417kts
05-Mar-16 08:37 30.409474 -97.608905 208 28518ft 416kts
05-Mar-16 08:38 30.309169 -97.658642 208 26253ft 419kts
05-Mar-16 08:39 30.209579 -97.707857 207 22749ft 408kts
05-Mar-16 08:40 30.115572 -97.754225 206 19448ft 384kts
05-Mar-16 08:41 30.076226 -97.773608 206 18075ft 374kts
05-Mar-16 08:42 30.076226 -97.773608 206 18075ft 374kts
05-Mar-16 08:44 30.040666 -97.791106 206 16937ft 361kts
05-Mar-16 08:45 29.954048 -97.833686 205 14453ft 337kts
05-Mar-16 08:46 29.887674 -97.891468 242 13478ft 322kts
05-Mar-16 08:47 29.847567 -97.981122 245 12594ft 321kts
05-Mar-16 08:48 29.810135 -98.069343 244 10482ft 298kts
05-Mar-16 08:49 29.777648 -98.146718 243 8617ft 264kts
05-Mar-16 08:50 29.746622 -98.219954 245 7082ft 273kts
05-Mar-16 08:51 29.714527 -98.295884 244 5648ft 266kts
05-Mar-16 08:52 29.683136 -98.369793 244 4364ft 262kts
05-Mar-16 08:53 29.656810 -98.445754 268 3431ft 257kts
05-Mar-16 08:54 29.684860 -98.517793 298 3193ft 243kts
05-Mar-16 08:55 29.715231 -98.579253 274 3203ft 224kts
05-Mar-16 08:56 29.670802 -98.599916 161 3207ft 212kts
05-Mar-16 08:57 29.616107 -98.580138 152 3188ft 204kts
05-Mar-16 08:58 29.592737 -98.535238 138 3207ft 160kts
05-Mar-16 08:59 29.554818 -98.536697 243 2852ft 167kts
05-Mar-16 09:00 29.572792 -98.570074 45 2552ft 151kts
05-Mar-16 09:01 29.581162 -98.527719 127 2174ft 159kts
05-Mar-16 09:02 29.550916 -98.495825 126 1114ft 138kts
05-Mar-16 09:03 29.532831 -98.473092 154 815ft 33kts

Navigation Log

Ident Type
1. KDFW Airport
2. JASPA Fix
3. WINDU Fix
4. KSAT Airport